Hoegh Trigger — LAUK7 — position and weather

sailwx.info

Track history (hours):
 
Tides and Currents Weather Stations Pressure Air Temp Water Temp Dewpoint Dewpoint Depression Visibility Wind Speed Wind Dir Waves Ship Positions

Hoegh Trigger

Last reported at 2018-Jun-05 10:27 UTC. Time now 2018-Jun-20 22:31 UTC.
Position S 26°43' E 153°11'.
Warning: this ship's position is 15 days out of date.

Length 199 m; draft 8.2 m.

Type: Cargo ship. MMSI: 258389000.

Date/timePositionNaut miles runAvg speedWind from/ knotsBaromVisibWave heightAir tempDewpointWater temp
2018-Jun-05 10:27S 26°43' E 153°11'613.0
2018-Jun-05 10:00S 26°49' E 153°10'612.9
2018-Jun-05 09:30S 26°55' E 153°12'713.2
2018-Jun-05 09:01S 27°01' E 153°15'714.3
2018-Jun-05 08:31S 27°06' E 153°20'714.5
2018-Jun-05 08:00S 27°14' E 153°20'714.8
2018-Jun-05 07:31S 27°18' E 153°13'510.9
2018-Jun-05 07:00S 27°22' E 153°10'0 0.4
2018-Jun-05 06:29S 27°23' E 153°10'0 0.0
2018-Jun-05 05:59S 27°23' E 153°10'0 0.0
2018-Jun-05 05:29S 27°23' E 153°10'0 0.0
2018-Jun-05 04:59S 27°23' E 153°10'0 0.0
2018-Jun-05 04:29S 27°23' E 153°10'0 0.0
2018-Jun-05 03:59S 27°23' E 153°10'0 0.0
2018-Jun-05 03:29S 27°23' E 153°10'0 0.0
2018-Jun-05 02:59S 27°23' E 153°10'0 0.0
2018-Jun-05 02:29S 27°23' E 153°10'0 0.0
2018-Jun-05 01:58S 27°23' E 153°10'0 0.0
2018-Jun-05 01:28S 27°23' E 153°10'0 0.0
2018-Jun-05 00:58S 27°23' E 153°10'0 0.0
2018-Jun-05 00:28S 27°23' E 153°10'0 0.0
2018-Jun-04 23:58S 27°23' E 153°10'0 0.0
2018-Jun-04 23:28S 27°23' E 153°10'0 0.0
2018-Jun-04 22:55S 27°23' E 153°10'0 0.0
2018-Jun-04 22:28S 27°23' E 153°10'0 0.0
2018-Jun-04 21:58S 27°23' E 153°10'0 0.0
2018-Jun-04 21:28S 27°23' E 153°10'0 0.0
2018-Jun-04 20:55S 27°23' E 153°10'0 0.3
2018-Jun-04 20:30S 27°23' E 153°10'3 6.4
2018-Jun-04 20:00S 27°20' E 153°12'612.0
2018-Jun-04 19:30S 27°16' E 153°17'714.4
2018-Jun-04 19:00S 27°10' E 153°21'714.5
2018-Jun-04 18:30S 27°03' E 153°17'714.9
2018-Jun-04 18:00S 26°57' E 153°13'814.0
2018-Jun-04 17:27S 26°50' E 153°09'710.9
2018-Jun-04 16:51S 26°44' E 153°11'3 9.1
2018-Jun-04 16:30S 26°45' E 153°15'4 8.7
2018-Jun-04 16:00S 26°47' E 153°19'5 9.4
2018-Jun-04 15:28S 26°50' E 153°23'5 9.7
2018-Jun-04 15:00S 26°53' E 153°27'510.4
2018-Jun-04 14:30S 26°56' E 153°32'510.2
2018-Jun-04 14:00S 27°01' E 153°34'510.5
2018-Jun-04 13:30S 27°06' E 153°36'510.5
2018-Jun-04 13:00S 27°11' E 153°37'910.9
2018-Jun-04 12:10S 27°20' E 153°39'911.7
2018-Jun-04 11:23S 27°29' E 153°41'812.6
2018-Jun-04 10:45S 27°37' E 153°41'312.1
2018-Jun-04 10:30S 27°40' E 153°42'611.7
2018-Jun-04 10:00S 27°46' E 153°42'611.5
2018-Jun-04 09:30S 27°51' E 153°42'711.4
2018-Jun-04 08:53S 27°58' E 153°43'26715.1
2018-Jun-03 15:15S 32°20' E 152°42'417.9
2018-Jun-03 15:00S 32°25' E 152°40'816.8
2018-Jun-03 14:30S 32°32' E 152°36'815.9
2018-Jun-03 14:00S 32°39' E 152°33'815.4
2018-Jun-03 13:30S 32°47' E 152°29'714.8
2018-Jun-03 13:00S 32°53' E 152°26'714.1
2018-Jun-03 12:31S 33°00' E 152°23'713.5
2018-Jun-03 12:01S 33°06' E 152°20'713.3
2018-Jun-03 11:30S 33°12' E 152°16'3213.7
2018-Jun-03 09:11S 33°35' E 151°50'314.5
2018-Jun-03 09:00S 33°37' E 151°48'714.4
2018-Jun-03 08:30S 33°43' E 151°43'714.5
2018-Jun-03 08:00S 33°48' E 151°37'815.2
2018-Jun-03 07:31S 33°54' E 151°30'815.4
2018-Jun-03 07:00S 33°60' E 151°24'265 5.4
2018-Jun-01 06:17S 38°05' E 149°19'712.4
2018-Jun-01 05:42S 38°09' E 149°13'312.4
2018-Jun-01 05:28S 38°11' E 149°10'612.7
2018-Jun-01 05:00S 38°15' E 149°04'712.7
2018-Jun-01 04:26S 38°19' E 148°57'  
Track history (hours):
 
Tides and Currents Weather Stations Pressure Air Temp Water Temp Dewpoint Dewpoint Depression Visibility Wind Speed Wind Dir Waves Ship Positions

Hoegh Trigger

Last reported at 2018-Jun-05 10:27 UTC. Time now 2018-Jun-20 22:31 UTC.
Position S 26°43' E 153°11'.
Warning: this ship's position is 15 days out of date.

Length 199 m; draft 8.2 m.

Type: Cargo ship. MMSI: 258389000.

Date/timePositionNaut miles runAvg speedWind from/ knotsBaromVisibWave heightAir tempDewpointWater temp
2018-Jun-05 10:27S 26°43' E 153°11'613.0
2018-Jun-05 10:00S 26°49' E 153°10'612.9
2018-Jun-05 09:30S 26°55' E 153°12'713.2
2018-Jun-05 09:01S 27°01' E 153°15'714.3
2018-Jun-05 08:31S 27°06' E 153°20'714.5
2018-Jun-05 08:00S 27°14' E 153°20'714.8
2018-Jun-05 07:31S 27°18' E 153°13'510.9
2018-Jun-05 07:00S 27°22' E 153°10'0 0.4
2018-Jun-05 06:29S 27°23' E 153°10'0 0.0
2018-Jun-05 05:59S 27°23' E 153°10'0 0.0
2018-Jun-05 05:29S 27°23' E 153°10'0 0.0
2018-Jun-05 04:59S 27°23' E 153°10'0 0.0
2018-Jun-05 04:29S 27°23' E 153°10'0 0.0
2018-Jun-05 03:59S 27°23' E 153°10'0 0.0
2018-Jun-05 03:29S 27°23' E 153°10'0 0.0
2018-Jun-05 02:59S 27°23' E 153°10'0 0.0
2018-Jun-05 02:29S 27°23' E 153°10'0 0.0
2018-Jun-05 01:58S 27°23' E 153°10'0 0.0
2018-Jun-05 01:28S 27°23' E 153°10'0 0.0
2018-Jun-05 00:58S 27°23' E 153°10'0 0.0
2018-Jun-05 00:28S 27°23' E 153°10'0 0.0
2018-Jun-04 23:58S 27°23' E 153°10'0 0.0
2018-Jun-04 23:28S 27°23' E 153°10'0 0.0
2018-Jun-04 22:55S 27°23' E 153°10'0 0.0
2018-Jun-04 22:28S 27°23' E 153°10'0 0.0
2018-Jun-04 21:58S 27°23' E 153°10'0 0.0
2018-Jun-04 21:28S 27°23' E 153°10'0 0.0
2018-Jun-04 20:55S 27°23' E 153°10'0 0.3
2018-Jun-04 20:30S 27°23' E 153°10'3 6.4
2018-Jun-04 20:00S 27°20' E 153°12'612.0
2018-Jun-04 19:30S 27°16' E 153°17'714.4
2018-Jun-04 19:00S 27°10' E 153°21'714.5
2018-Jun-04 18:30S 27°03' E 153°17'714.9
2018-Jun-04 18:00S 26°57' E 153°13'814.0
2018-Jun-04 17:27S 26°50' E 153°09'710.9
2018-Jun-04 16:51S 26°44' E 153°11'3 9.1
2018-Jun-04 16:30S 26°45' E 153°15'4 8.7
2018-Jun-04 16:00S 26°47' E 153°19'5 9.4
2018-Jun-04 15:28S 26°50' E 153°23'5 9.7
2018-Jun-04 15:00S 26°53' E 153°27'510.4
2018-Jun-04 14:30S 26°56' E 153°32'510.2
2018-Jun-04 14:00S 27°01' E 153°34'510.5
2018-Jun-04 13:30S 27°06' E 153°36'510.5
2018-Jun-04 13:00S 27°11' E 153°37'910.9
2018-Jun-04 12:10S 27°20' E 153°39'911.7
2018-Jun-04 11:23S 27°29' E 153°41'812.6
2018-Jun-04 10:45S 27°37' E 153°41'312.1
2018-Jun-04 10:30S 27°40' E 153°42'611.7
2018-Jun-04 10:00S 27°46' E 153°42'611.5
2018-Jun-04 09:30S 27°51' E 153°42'711.4
2018-Jun-04 08:53S 27°58' E 153°43'26715.1
2018-Jun-03 15:15S 32°20' E 152°42'417.9
2018-Jun-03 15:00S 32°25' E 152°40'816.8
2018-Jun-03 14:30S 32°32' E 152°36'815.9
2018-Jun-03 14:00S 32°39' E 152°33'815.4
2018-Jun-03 13:30S 32°47' E 152°29'714.8
2018-Jun-03 13:00S 32°53' E 152°26'714.1
2018-Jun-03 12:31S 33°00' E 152°23'713.5
2018-Jun-03 12:01S 33°06' E 152°20'713.3
2018-Jun-03 11:30S 33°12' E 152°16'3213.7
2018-Jun-03 09:11S 33°35' E 151°50'314.5
2018-Jun-03 09:00S 33°37' E 151°48'714.4
2018-Jun-03 08:30S 33°43' E 151°43'714.5
2018-Jun-03 08:00S 33°48' E 151°37'815.2
2018-Jun-03 07:31S 33°54' E 151°30'815.4
2018-Jun-03 07:00S 33°60' E 151°24'265 5.4
2018-Jun-01 06:17S 38°05' E 149°19'712.4
2018-Jun-01 05:42S 38°09' E 149°13'312.4
2018-Jun-01 05:28S 38°11' E 149°10'612.7
2018-Jun-01 05:00S 38°15' E 149°04'712.7
2018-Jun-01 04:26S 38°19' E 148°57'  

Dump ship's entire track history